createdAt,value
2022-12-26T00:01:37.024Z,52.81
2022-12-26T00:04:07.553Z,52.65
2022-12-26T00:06:55.859Z,52.76
2022-12-26T00:09:24.359Z,52.94
2022-12-26T00:11:52.896Z,52.62
2022-12-26T00:14:21.647Z,52.74
2022-12-26T00:16:50.190Z,52.85
2022-12-26T00:19:20.102Z,52.71
2022-12-26T00:21:48.759Z,52.80
2022-12-26T00:24:17.189Z,52.79
2022-12-26T00:26:45.642Z,52.83
2022-12-26T00:29:14.094Z,52.87
2022-12-26T00:31:42.613Z,52.94
2022-12-26T00:34:11.909Z,52.71
2022-12-26T00:36:41.749Z,52.77
2022-12-26T00:39:14.013Z,52.70
2022-12-26T00:41:42.430Z,52.57
2022-12-26T00:44:10.840Z,52.75
2022-12-26T00:46:39.379Z,53.08
2022-12-26T00:49:07.862Z,52.98
2022-12-26T00:51:36.293Z,53.02
2022-12-26T00:54:06.240Z,53.10
2022-12-26T00:56:34.658Z,53.15
2022-12-26T00:59:03.135Z,52.97
2022-12-26T01:01:32.542Z,53.13
2022-12-26T01:04:01.291Z,53.03
2022-12-26T01:06:29.714Z,53.19
2022-12-26T01:08:59.611Z,53.20
2022-12-26T01:11:41.903Z,53.26
2022-12-26T01:14:14.187Z,53.23
2022-12-26T01:16:45.546Z,53.22
2022-12-26T01:19:15.046Z,53.03
2022-12-26T01:21:43.712Z,53.21
2022-12-26T01:24:13.844Z,53.30
2022-12-26T01:26:43.765Z,53.15
2022-12-26T01:29:12.190Z,52.97
2022-12-26T01:31:40.686Z,52.98
2022-12-26T01:34:09.377Z,52.89
2022-12-26T01:36:37.805Z,52.88
2022-12-26T01:39:06.295Z,52.91
2022-12-26T01:41:34.856Z,52.92
2022-12-26T01:44:08.511Z,52.73
2022-12-26T01:46:41.408Z,52.78
2022-12-26T01:49:16.143Z,52.70
2022-12-26T01:51:49.369Z,52.67
2022-12-26T01:54:37.409Z,52.44
2022-12-26T01:57:12.497Z,52.51
2022-12-26T01:59:43.178Z,52.51
2022-12-26T02:02:12.423Z,52.52
2022-12-26T02:05:04.244Z,52.63
2022-12-26T02:07:35.770Z,52.49
2022-12-26T02:10:07.294Z,52.62
2022-12-26T02:12:38.965Z,52.49
2022-12-26T02:15:13.757Z,52.51
2022-12-26T02:17:42.928Z,52.48
2022-12-26T02:20:21.949Z,52.65
2022-12-26T02:23:42.268Z,52.37
2022-12-26T02:26:52.860Z,52.57
2022-12-26T02:30:15.056Z,52.78
2022-12-26T02:33:32.139Z,52.62
2022-12-26T02:36:37.714Z,52.61
2022-12-26T02:39:43.407Z,52.67
2022-12-26T02:42:29.229Z,52.48
2022-12-26T02:45:26.154Z,52.57
2022-12-26T02:48:04.502Z,52.65
2022-12-26T02:51:23.328Z,52.61
2022-12-26T02:54:20.920Z,52.72
2022-12-26T02:57:13.149Z,52.77
2022-12-26T03:00:10.811Z,52.65
2022-12-26T03:03:02.471Z,52.65
2022-12-26T03:05:55.251Z,52.51
2022-12-26T03:08:49.508Z,52.57
2022-12-26T03:11:35.305Z,52.54
2022-12-26T03:14:15.962Z,52.34
2022-12-26T03:17:04.230Z,52.65
2022-12-26T03:19:35.538Z,52.50
2022-12-26T03:22:27.476Z,52.62
2022-12-26T03:25:13.205Z,52.64
2022-12-26T03:27:41.637Z,52.70
2022-12-26T03:30:25.525Z,52.71
2022-12-26T03:32:56.763Z,52.77
2022-12-26T03:35:26.038Z,52.61
2022-12-26T03:37:58.593Z,52.54
2022-12-26T03:40:59.424Z,52.31
2022-12-26T03:44:07.679Z,52.63
2022-12-26T03:47:12.176Z,52.34
2022-12-26T03:50:04.762Z,52.53
2022-12-26T03:53:00.384Z,52.33
2022-12-26T03:56:01.575Z,52.52
2022-12-26T03:58:55.667Z,52.53
2022-12-26T04:01:49.145Z,52.57
2022-12-26T04:04:37.314Z,52.54
2022-12-26T04:07:31.105Z,52.80
2022-12-26T04:10:22.107Z,52.56
2022-12-26T04:13:11.630Z,52.53
2022-12-26T04:16:03.679Z,52.79
2022-12-26T04:19:02.358Z,52.70
2022-12-26T04:21:59.037Z,52.96
2022-12-26T04:24:51.046Z,52.92
2022-12-26T04:27:39.844Z,53.25
2022-12-26T04:30:29.104Z,53.03
2022-12-26T04:33:23.911Z,53.17
2022-12-26T04:36:15.297Z,53.20
2022-12-26T04:39:07.954Z,53.14
2022-12-26T04:41:55.467Z,53.15
2022-12-26T04:44:25.672Z,53.27
2022-12-26T04:46:57.286Z,52.96
2022-12-26T04:49:43.465Z,53.51
2022-12-26T04:52:14.658Z,53.59
2022-12-26T04:54:44.388Z,53.41
2022-12-26T04:57:13.083Z,53.40
2022-12-26T04:59:41.501Z,53.49
2022-12-26T05:02:29.104Z,53.56
2022-12-26T05:05:14.906Z,53.43
2022-12-26T05:08:01.063Z,53.43
2022-12-26T05:10:30.300Z,53.33
2022-12-26T05:12:58.712Z,53.60
2022-12-26T05:15:27.197Z,53.50
2022-12-26T05:18:14.549Z,53.51
2022-12-26T05:21:00.274Z,53.50
2022-12-26T05:23:47.274Z,53.74
2022-12-26T05:26:37.893Z,53.75
2022-12-26T05:29:06.536Z,53.57
2022-12-26T05:31:36.825Z,53.58
2022-12-26T05:34:06.848Z,53.80
2022-12-26T05:36:40.404Z,53.61
2022-12-26T05:39:10.110Z,53.55
2022-12-26T05:41:40.565Z,53.40
2022-12-26T05:44:10.547Z,53.60
2022-12-26T05:46:39.954Z,53.86
2022-12-26T05:49:10.558Z,53.85
2022-12-26T05:51:39.116Z,53.51
2022-12-26T05:54:07.604Z,53.61
2022-12-26T05:56:36.079Z,53.48
2022-12-26T05:59:04.565Z,53.50
2022-12-26T06:01:33.276Z,53.61
2022-12-26T06:04:02.998Z,53.41
2022-12-26T06:06:32.859Z,53.35
2022-12-26T06:09:01.301Z,53.53
2022-12-26T06:11:29.753Z,53.43
2022-12-26T06:13:58.840Z,53.59
2022-12-26T06:16:27.311Z,53.96
2022-12-26T06:18:56.554Z,53.48
2022-12-26T06:21:26.294Z,53.61
2022-12-26T06:23:56.088Z,53.56
2022-12-26T06:26:24.593Z,53.52
2022-12-26T06:28:53.244Z,53.62
2022-12-26T06:31:24.882Z,53.53
2022-12-26T06:33:58.426Z,53.68
2022-12-26T06:36:28.615Z,53.58
2022-12-26T06:38:58.519Z,53.66
2022-12-26T06:41:27.309Z,53.80
2022-12-26T06:43:57.091Z,53.66
2022-12-26T06:46:26.906Z,53.66
2022-12-26T06:48:55.729Z,53.85
2022-12-26T06:51:26.626Z,53.79
2022-12-26T06:53:55.805Z,53.70
2022-12-26T06:56:27.907Z,53.95
2022-12-26T06:58:57.445Z,53.65
2022-12-26T07:01:27.247Z,53.85
2022-12-26T07:03:57.110Z,53.91
2022-12-26T07:06:27.798Z,53.99
2022-12-26T07:09:00.048Z,54.04
2022-12-26T07:11:32.489Z,54.00
2022-12-26T07:14:01.567Z,54.05
2022-12-26T07:16:30.153Z,53.80
2022-12-26T07:18:59.913Z,53.99
2022-12-26T07:21:29.856Z,53.78
2022-12-26T07:23:59.870Z,53.63
2022-12-26T07:26:29.676Z,53.73
2022-12-26T07:29:00.184Z,53.74
2022-12-26T07:31:29.308Z,53.83
2022-12-26T07:33:58.243Z,53.44
2022-12-26T07:36:27.160Z,53.62
2022-12-26T07:38:55.630Z,53.70
2022-12-26T07:41:41.942Z,53.69
2022-12-26T07:44:12.688Z,53.56
2022-12-26T07:46:41.156Z,53.43
2022-12-26T07:49:12.169Z,53.39
2022-12-26T07:51:40.676Z,53.61
2022-12-26T07:54:11.661Z,53.36
2022-12-26T07:56:40.544Z,53.48
2022-12-26T07:59:09.447Z,53.57
2022-12-26T08:01:39.356Z,53.57
2022-12-26T08:04:07.951Z,53.64
2022-12-26T08:06:36.443Z,53.60
2022-12-26T08:09:05.542Z,53.62
2022-12-26T08:11:36.239Z,53.39
2022-12-26T08:14:04.836Z,53.34
2022-12-26T08:16:33.410Z,53.36
2022-12-26T08:19:04.814Z,53.35
2022-12-26T08:21:33.348Z,53.40
2022-12-26T08:24:01.892Z,53.43
2022-12-26T08:26:30.556Z,53.33
2022-12-26T08:29:00.216Z,53.18
2022-12-26T08:31:28.710Z,53.01
2022-12-26T08:33:58.406Z,53.23
2022-12-26T08:36:28.251Z,53.18
2022-12-26T08:38:57.187Z,53.25
2022-12-26T08:41:26.073Z,53.19
2022-12-26T08:46:43.520Z,53.14
2022-12-26T08:49:12.144Z,53.29
2022-12-26T08:51:41.984Z,53.49
2022-12-26T08:54:10.385Z,53.45
2022-12-26T08:56:38.847Z,53.29
2022-12-26T08:59:07.273Z,53.35
2022-12-26T09:01:35.958Z,53.30
2022-12-26T09:04:07.012Z,53.25
2022-12-26T09:06:37.681Z,53.23
2022-12-26T09:09:09.146Z,53.07
2022-12-26T09:11:37.530Z,53.06
2022-12-26T09:14:06.076Z,52.92
2022-12-26T09:16:39.322Z,52.85
2022-12-26T09:19:12.739Z,52.86
2022-12-26T09:21:42.041Z,52.77
2022-12-26T09:24:16.373Z,52.71
2022-12-26T09:26:45.343Z,52.68
2022-12-26T09:29:14.767Z,52.70
2022-12-26T09:31:43.214Z,52.71
2022-12-26T09:34:11.895Z,52.71
2022-12-26T09:36:40.767Z,52.68
2022-12-26T09:39:09.931Z,52.60
2022-12-26T09:42:04.103Z,52.66
2022-12-26T09:44:47.813Z,52.45
2022-12-26T09:47:33.383Z,52.50
2022-12-26T09:50:12.160Z,52.43
2022-12-26T09:52:49.455Z,52.60
2022-12-26T09:55:36.642Z,52.58
2022-12-26T09:58:20.329Z,52.42
2022-12-26T10:00:56.817Z,52.42
2022-12-26T10:03:26.082Z,52.44
2022-12-26T10:06:11.349Z,52.31
2022-12-26T10:09:28.310Z,52.43
2022-12-26T10:12:36.923Z,52.51
2022-12-26T10:15:21.440Z,52.38
2022-12-26T10:18:02.145Z,52.36
2022-12-26T10:20:40.953Z,52.37
2022-12-26T10:23:31.022Z,52.29
2022-12-26T10:26:09.755Z,52.30
2022-12-26T10:28:43.903Z,52.16
2022-12-26T10:31:22.580Z,52.17
2022-12-26T10:33:57.707Z,51.76
2022-12-26T10:36:35.858Z,51.77
2022-12-26T10:39:09.886Z,51.72
2022-12-26T10:41:46.120Z,51.65
2022-12-26T10:44:16.371Z,51.81
2022-12-26T10:47:27.323Z,51.31
2022-12-26T10:49:59.935Z,51.52
2022-12-26T10:52:35.599Z,51.33
2022-12-26T10:55:29.684Z,51.19
2022-12-26T10:57:55.196Z,51.16
2022-12-26T11:00:27.253Z,51.08
2022-12-26T11:03:09.239Z,50.99
2022-12-26T11:08:43.201Z,51.01
2022-12-26T11:11:22.322Z,50.99
2022-12-26T11:14:01.250Z,51.06
2022-12-26T11:16:35.756Z,51.06
2022-12-26T11:19:06.649Z,51.09
2022-12-26T11:21:35.616Z,51.15
2022-12-26T11:24:19.901Z,50.91
2022-12-26T11:26:48.796Z,50.95
2022-12-26T11:29:20.566Z,50.74
2022-12-26T11:31:55.764Z,50.81
2022-12-26T11:34:34.617Z,50.71
2022-12-26T11:37:04.530Z,50.67
2022-12-26T11:39:38.348Z,50.40
2022-12-26T11:42:12.006Z,50.29
2022-12-26T11:44:46.145Z,50.42
2022-12-26T11:47:19.201Z,50.29
2022-12-26T11:49:59.127Z,50.35
2022-12-26T11:52:39.572Z,50.38
2022-12-26T11:55:31.045Z,50.52
2022-12-26T11:58:06.210Z,50.23
2022-12-26T12:00:37.159Z,50.27
2022-12-26T12:03:12.439Z,50.20
2022-12-26T12:05:53.969Z,50.25
2022-12-26T12:08:38.597Z,49.99
2022-12-26T12:11:24.085Z,50.19
2022-12-26T12:14:26.044Z,49.90
2022-12-26T12:17:08.019Z,50.00
2022-12-26T12:19:59.233Z,49.63
2022-12-26T12:23:07.619Z,49.58
2022-12-26T12:25:50.877Z,49.75
2022-12-26T12:28:41.468Z,49.57
2022-12-26T12:31:23.299Z,49.26
2022-12-26T12:33:59.927Z,49.23
2022-12-26T12:36:37.542Z,49.30
2022-12-26T12:39:17.500Z,49.22
2022-12-26T12:42:23.727Z,49.23
2022-12-26T12:45:27.198Z,49.10
2022-12-26T12:48:24.542Z,49.32
2022-12-26T12:51:05.025Z,49.24
2022-12-26T12:53:54.726Z,49.47
2022-12-26T12:56:42.171Z,49.43
2022-12-26T12:59:25.540Z,49.50
2022-12-26T13:02:02.776Z,49.62
2022-12-26T13:04:43.272Z,49.60
2022-12-26T13:07:18.826Z,49.58
2022-12-26T13:09:52.515Z,49.72
2022-12-26T13:12:26.425Z,49.57
2022-12-26T13:15:02.279Z,49.50
2022-12-26T13:17:38.537Z,49.63
2022-12-26T13:20:23.079Z,49.26
2022-12-26T13:23:14.533Z,49.62
2022-12-26T13:26:04.404Z,49.56
2022-12-26T13:28:45.540Z,49.67
2022-12-26T13:31:14.935Z,49.62
2022-12-26T13:33:44.258Z,49.77
2022-12-26T13:36:38.979Z,49.96
2022-12-26T13:39:40.745Z,50.02
2022-12-26T13:42:47.020Z,50.03
2022-12-26T13:45:49.796Z,50.18
2022-12-26T13:49:00.458Z,50.24
2022-12-26T13:51:57.880Z,50.15
2022-12-26T13:54:29.039Z,50.02
2022-12-26T13:57:37.233Z,50.16
2022-12-26T14:00:20.433Z,49.97
2022-12-26T14:03:26.453Z,49.91
2022-12-26T14:06:27.492Z,49.92
2022-12-26T14:09:33.577Z,49.97
2022-12-26T14:12:26.222Z,49.59
2022-12-26T14:15:17.644Z,49.95
2022-12-26T14:18:00.688Z,49.85
2022-12-26T14:20:42.942Z,49.87
2022-12-26T14:23:33.780Z,49.66
2022-12-26T14:26:12.504Z,49.81
2022-12-26T14:28:58.223Z,49.79
2022-12-26T14:31:39.685Z,49.73
2022-12-26T14:34:25.490Z,49.96
2022-12-26T14:37:05.189Z,49.96
2022-12-26T14:39:43.814Z,49.94
2022-12-26T14:42:41.199Z,50.03
2022-12-26T14:45:44.691Z,50.15
2022-12-26T14:48:54.485Z,50.21
2022-12-26T14:51:41.664Z,50.37
2022-12-26T14:54:50.941Z,50.48
2022-12-26T14:57:44.195Z,50.38
2022-12-26T15:00:38.828Z,50.57
2022-12-26T15:03:39.244Z,50.72
2022-12-26T15:07:03.803Z,50.67
2022-12-26T15:10:16.913Z,50.81
2022-12-26T15:13:38.490Z,50.94
2022-12-26T15:16:35.800Z,50.94
2022-12-26T15:20:01.944Z,50.97
2022-12-26T15:23:20.725Z,51.02
2022-12-26T15:26:26.139Z,50.92
2022-12-26T15:29:45.832Z,51.21
2022-12-26T15:32:19.693Z,51.01
2022-12-26T15:35:07.404Z,51.37
2022-12-26T15:38:27.108Z,51.19
2022-12-26T15:41:10.219Z,51.31
2022-12-26T15:43:54.107Z,51.20
2022-12-26T15:46:27.741Z,51.20
2022-12-26T15:49:31.344Z,51.16
2022-12-26T15:52:11.882Z,51.09
2022-12-26T15:55:28.711Z,51.39
2022-12-26T15:58:03.929Z,51.36
2022-12-26T16:00:35.631Z,51.45
2022-12-26T16:03:26.156Z,51.36
2022-12-26T16:06:06.267Z,51.32
2022-12-26T16:09:06.563Z,51.40
2022-12-26T16:11:50.788Z,51.40
2022-12-26T16:14:33.321Z,51.44
2022-12-26T16:17:23.370Z,51.48
2022-12-26T16:19:55.417Z,51.48
2022-12-26T16:22:49.615Z,51.58
2022-12-26T16:25:23.720Z,51.62
2022-12-26T16:27:55.392Z,51.56
2022-12-26T16:30:26.549Z,51.55
2022-12-26T16:32:56.107Z,51.55
2022-12-26T16:35:28.923Z,51.68
2022-12-26T16:38:00.338Z,51.57
2022-12-26T16:40:33.055Z,51.74
2022-12-26T16:43:06.999Z,51.76
2022-12-26T16:45:38.725Z,51.76
2022-12-26T16:48:09.405Z,51.68
2022-12-26T16:50:47.594Z,51.78
2022-12-26T16:53:18.708Z,51.65
2022-12-26T16:55:52.691Z,51.63
2022-12-26T16:58:26.718Z,51.88
2022-12-26T17:01:08.089Z,51.88
2022-12-26T17:03:50.042Z,51.89
2022-12-26T17:06:25.606Z,51.79
2022-12-26T17:08:55.409Z,51.93
2022-12-26T17:11:34.947Z,52.11
2022-12-26T17:14:08.890Z,52.04
2022-12-26T17:16:37.457Z,52.12
2022-12-26T17:19:19.003Z,51.78
2022-12-26T17:22:22.085Z,52.21
2022-12-26T17:24:52.068Z,52.12
2022-12-26T17:27:24.558Z,52.17
2022-12-26T17:30:00.654Z,52.19
2022-12-26T17:32:35.525Z,52.24
2022-12-26T17:35:14.166Z,52.21
2022-12-26T17:37:43.838Z,52.26
2022-12-26T17:40:27.951Z,52.23
2022-12-26T17:43:08.950Z,52.34
2022-12-26T17:45:44.549Z,52.42
2022-12-26T17:48:14.896Z,52.12
2022-12-26T17:50:45.761Z,52.16
2022-12-26T17:53:27.975Z,52.06
2022-12-26T17:55:58.612Z,52.26
2022-12-26T17:58:29.145Z,52.29
2022-12-26T18:00:59.011Z,52.03
2022-12-26T18:03:27.610Z,52.01
2022-12-26T18:05:57.806Z,51.62
2022-12-26T18:08:31.985Z,51.56
2022-12-26T18:11:01.521Z,51.21
2022-12-26T18:13:31.795Z,50.65
2022-12-26T18:16:01.807Z,50.75
2022-12-26T18:18:35.925Z,50.66
2022-12-26T18:21:06.733Z,50.55
2022-12-26T18:23:35.974Z,50.63
2022-12-26T18:26:18.035Z,50.59
2022-12-26T18:28:55.012Z,50.76
2022-12-26T18:31:23.749Z,50.49
2022-12-26T18:33:53.826Z,50.38
2022-12-26T18:36:27.606Z,50.23
2022-12-26T18:38:56.207Z,49.85
2022-12-26T18:41:24.966Z,49.72
2022-12-26T18:43:54.873Z,49.56
2022-12-26T18:46:26.112Z,49.07
2022-12-26T18:48:56.846Z,48.75
2022-12-26T18:51:28.368Z,47.70
2022-12-26T18:53:57.388Z,47.38
2022-12-26T18:56:26.294Z,46.42
2022-12-26T18:58:58.156Z,46.05
2022-12-26T19:01:27.674Z,45.54
2022-12-26T19:03:57.932Z,45.79
2022-12-26T19:06:32.565Z,45.58
2022-12-26T19:09:01.143Z,45.73
2022-12-26T19:11:29.944Z,45.98
2022-12-26T19:14:00.934Z,45.72
2022-12-26T19:16:29.594Z,44.79
2022-12-26T19:18:58.770Z,45.04
2022-12-26T19:21:27.414Z,45.61
2022-12-26T19:23:56.733Z,45.82
2022-12-26T19:26:26.105Z,45.10
2022-12-26T19:28:56.598Z,45.05
2022-12-26T19:31:26.884Z,44.49
2022-12-26T19:33:58.816Z,44.44
2022-12-26T19:36:27.529Z,44.33
2022-12-26T19:38:56.616Z,44.32
2022-12-26T19:41:25.061Z,44.18
2022-12-26T19:43:57.770Z,43.93
2022-12-26T19:46:31.547Z,44.29
2022-12-26T19:49:00.321Z,44.29
2022-12-26T19:51:29.073Z,44.20
2022-12-26T19:53:58.282Z,44.07
2022-12-26T19:56:29.810Z,43.75
2022-12-26T19:58:59.953Z,43.69
2022-12-26T20:01:33.638Z,43.63
2022-12-26T20:04:06.984Z,43.47
2022-12-26T20:06:40.467Z,43.81
2022-12-26T20:09:12.481Z,43.82
2022-12-26T20:11:45.154Z,44.21
2022-12-26T20:14:17.940Z,43.75
2022-12-26T20:17:08.972Z,43.84
2022-12-26T20:19:38.352Z,44.00
2022-12-26T20:22:08.915Z,44.02
2022-12-26T20:24:38.205Z,43.49
2022-12-26T20:27:07.161Z,43.87
2022-12-26T20:29:35.922Z,43.63
2022-12-26T20:32:06.772Z,43.73
2022-12-26T20:34:35.924Z,43.57
2022-12-26T20:37:04.593Z,43.29
2022-12-26T20:39:33.296Z,43.62
2022-12-26T20:42:02.230Z,43.56
2022-12-26T20:44:31.496Z,43.56
2022-12-26T20:47:00.055Z,43.92
2022-12-26T20:49:30.813Z,42.67
2022-12-26T20:52:00.335Z,42.71
2022-12-26T20:54:29.765Z,43.03
2022-12-26T20:56:59.124Z,43.17
2022-12-26T20:59:28.034Z,43.41
2022-12-26T21:01:57.090Z,43.28
2022-12-26T21:04:25.959Z,43.27
2022-12-26T21:06:55.840Z,43.05
2022-12-26T21:09:24.464Z,43.24
2022-12-26T21:11:53.834Z,43.30
2022-12-26T21:14:24.294Z,43.39
2022-12-26T21:16:56.310Z,43.06
2022-12-26T21:19:27.585Z,43.06
2022-12-26T21:21:59.592Z,43.19
2022-12-26T21:24:31.126Z,43.15
2022-12-26T21:26:59.980Z,42.69
2022-12-26T21:29:32.229Z,42.83
2022-12-26T21:32:02.085Z,42.30
2022-12-26T21:34:33.111Z,42.15
2022-12-26T21:37:20.686Z,42.74
2022-12-26T21:39:50.756Z,42.96
2022-12-26T21:42:19.559Z,42.95
2022-12-26T21:44:48.699Z,42.75
2022-12-26T21:47:17.310Z,42.69
2022-12-26T21:49:45.809Z,42.48
2022-12-26T21:52:15.734Z,42.69
2022-12-26T21:55:01.483Z,42.69
2022-12-26T21:57:30.726Z,42.95
2022-12-26T21:59:59.868Z,43.07
2022-12-26T22:02:50.437Z,42.54
2022-12-26T22:05:21.429Z,42.70
2022-12-26T22:07:54.972Z,42.63
2022-12-26T22:10:41.531Z,42.68
2022-12-26T22:13:10.256Z,42.68
2022-12-26T22:16:00.975Z,42.75
2022-12-26T22:18:30.820Z,42.47
2022-12-26T22:21:04.567Z,42.58
2022-12-26T22:23:34.946Z,42.58
2022-12-26T22:26:03.392Z,42.52
2022-12-26T22:28:32.113Z,43.07
2022-12-26T22:31:01.682Z,43.30
2022-12-26T22:33:30.590Z,43.14
2022-12-26T22:36:06.753Z,43.41
2022-12-26T22:38:37.975Z,43.52
2022-12-26T22:41:07.557Z,43.52
2022-12-26T22:43:37.335Z,43.38
2022-12-26T22:46:06.050Z,43.38
2022-12-26T22:48:34.654Z,43.48
2022-12-26T22:51:03.094Z,43.31
2022-12-26T22:53:32.490Z,42.68
2022-12-26T22:56:04.287Z,42.64
2022-12-26T22:58:34.303Z,42.08
2022-12-26T23:01:03.037Z,42.19
2022-12-26T23:03:31.571Z,42.18
2022-12-26T23:06:00.805Z,41.92
2022-12-26T23:08:30.355Z,41.34
2022-12-26T23:11:01.533Z,41.53
2022-12-26T23:13:30.660Z,41.47
2022-12-26T23:16:07.392Z,41.67
2022-12-26T23:19:00.906Z,41.58
2022-12-26T23:21:39.888Z,41.59
2022-12-26T23:24:10.469Z,41.53
2022-12-26T23:26:41.474Z,41.65
2022-12-26T23:29:30.795Z,41.43
2022-12-26T23:31:59.511Z,41.50
2022-12-26T23:34:28.780Z,41.56
2022-12-26T23:36:57.295Z,41.69
2022-12-26T23:39:25.888Z,41.68
2022-12-26T23:41:55.893Z,41.55
2022-12-26T23:44:24.449Z,41.50
2022-12-26T23:46:52.896Z,41.63
2022-12-26T23:49:21.373Z,41.59
2022-12-26T23:51:49.834Z,41.68
2022-12-26T23:54:18.295Z,41.74
2022-12-26T23:56:46.819Z,41.77
2022-12-26T23:59:16.650Z,41.41
